createdAt,value
2019-02-04T00:02:38.994Z,14.23
2019-02-04T00:05:42.415Z,14.97
2019-02-04T00:08:45.877Z,13.97
2019-02-04T00:11:49.308Z,12.57
2019-02-04T00:14:52.739Z,12.57
2019-02-04T00:17:56.151Z,11.93
2019-02-04T00:20:59.668Z,13.03
2019-02-04T00:24:03.149Z,12.47
2019-02-04T00:27:06.680Z,12.83
2019-02-04T00:30:21.484Z,13.57
2019-02-04T00:33:24.952Z,13.10
2019-02-04T00:36:28.752Z,13.13
2019-02-04T00:39:32.216Z,12.30
2019-02-04T00:42:35.628Z,12.67
2019-02-04T00:45:39.648Z,12.43
2019-02-04T00:48:43.077Z,12.00
2019-02-04T00:51:46.529Z,13.30
2019-02-04T00:54:50.442Z,13.63
2019-02-04T00:57:53.885Z,14.00
2019-02-04T01:00:57.335Z,14.10
2019-02-04T01:04:01.228Z,14.30
2019-02-04T01:07:05.457Z,14.77
2019-02-04T01:10:20.452Z,13.77
2019-02-04T01:13:23.914Z,13.57
2019-02-04T01:16:27.394Z,14.17
2019-02-04T01:19:30.828Z,14.80
2019-02-04T01:22:34.280Z,14.33
2019-02-04T01:25:37.717Z,14.27
2019-02-04T01:28:41.229Z,13.27
2019-02-04T01:31:44.681Z,13.40
2019-02-04T01:34:48.938Z,14.17
2019-02-04T01:37:52.540Z,14.60
2019-02-04T01:40:55.959Z,14.57
2019-02-04T01:43:59.400Z,14.30
2019-02-04T01:47:02.884Z,15.17
2019-02-04T01:50:09.456Z,15.27
2019-02-04T01:53:13.253Z,16.87
2019-02-04T01:56:16.713Z,16.63
2019-02-04T01:59:20.136Z,17.20
2019-02-04T02:02:23.957Z,16.43
2019-02-04T02:05:27.379Z,15.97
2019-02-04T02:08:30.832Z,16.50
2019-02-04T02:11:34.537Z,15.70
2019-02-04T02:14:37.996Z,16.27
2019-02-04T02:17:41.684Z,15.87
2019-02-04T02:20:45.136Z,15.30
2019-02-04T02:23:48.554Z,15.37
2019-02-04T02:26:51.996Z,14.80
2019-02-04T02:29:55.416Z,14.20
2019-02-04T02:32:58.856Z,14.97
2019-02-04T02:36:02.301Z,13.43
2019-02-04T02:39:07.816Z,13.87
2019-02-04T02:42:11.292Z,12.90
2019-02-04T02:45:14.696Z,13.40
2019-02-04T02:48:18.142Z,13.73
2019-02-04T02:51:21.556Z,12.23
2019-02-04T02:54:25.077Z,13.97
2019-02-04T02:57:28.505Z,13.10
2019-02-04T03:00:32.033Z,12.80
2019-02-04T03:03:35.454Z,12.57
2019-02-04T03:06:38.945Z,12.50
2019-02-04T03:09:42.368Z,12.77
2019-02-04T03:12:45.813Z,11.90
2019-02-04T03:15:52.377Z,12.53
2019-02-04T03:18:55.792Z,12.57
2019-02-04T03:21:59.321Z,13.40
2019-02-04T03:25:02.734Z,13.00
2019-02-04T03:28:06.188Z,12.73
2019-02-04T03:31:09.609Z,12.97
2019-02-04T03:34:13.045Z,12.70
2019-02-04T03:37:16.486Z,11.83
2019-02-04T03:40:25.252Z,12.27
2019-02-04T03:43:28.695Z,11.77
2019-02-04T03:46:32.133Z,11.97
2019-02-04T03:49:35.578Z,12.20
2019-02-04T03:52:38.996Z,11.80
2019-02-04T03:55:42.833Z,12.30
2019-02-04T03:58:46.252Z,12.17
2019-02-04T04:01:49.787Z,12.07
2019-02-04T04:04:53.484Z,12.33
2019-02-04T04:07:56.945Z,12.43
2019-02-04T04:11:00.355Z,12.90
2019-02-04T04:14:03.889Z,12.40
2019-02-04T04:17:07.297Z,12.50
2019-02-04T04:20:13.192Z,12.80
2019-02-04T04:23:16.597Z,12.00
2019-02-04T04:26:20.056Z,11.50
2019-02-04T04:29:23.471Z,12.53
2019-02-04T04:32:26.904Z,11.60
2019-02-04T04:35:30.324Z,11.57
2019-02-04T04:38:33.779Z,11.43
2019-02-04T04:41:37.192Z,11.07
2019-02-04T04:44:40.644Z,11.47
2019-02-04T04:47:44.064Z,10.93
2019-02-04T04:50:47.501Z,10.70
2019-02-04T04:53:50.985Z,10.60
2019-02-04T04:56:57.376Z,10.20
2019-02-04T05:00:00.793Z,10.13
2019-02-04T05:03:04.232Z,9.83
2019-02-04T05:06:07.673Z,9.57
2019-02-04T05:09:11.106Z,9.77
2019-02-04T05:12:14.544Z,9.27
2019-02-04T05:15:26.295Z,9.40
2019-02-04T05:18:37.664Z,8.67
2019-02-04T05:21:34.936Z,8.70
2019-02-04T05:24:38.399Z,8.40
2019-02-04T05:27:41.813Z,9.03
2019-02-04T05:30:45.628Z,8.20
2019-02-04T05:33:49.058Z,8.13
2019-02-04T05:36:52.567Z,8.83
2019-02-04T05:39:56.360Z,9.03
2019-02-04T05:42:59.800Z,8.70
2019-02-04T05:46:03.244Z,8.37
2019-02-04T05:49:07.027Z,9.63
2019-02-04T05:52:10.464Z,8.70
2019-02-04T05:55:14.736Z,8.37
2019-02-04T05:58:18.432Z,9.13
2019-02-04T06:01:21.864Z,8.80
2019-02-04T06:04:25.302Z,9.37
2019-02-04T06:07:29.005Z,8.57
2019-02-04T06:10:32.460Z,9.83
2019-02-04T06:13:35.875Z,9.47
2019-02-04T06:16:39.312Z,9.67
2019-02-04T06:19:42.724Z,11.07
2019-02-04T06:22:46.228Z,10.13
2019-02-04T06:25:49.688Z,10.53
2019-02-04T06:28:53.098Z,10.20
2019-02-04T06:31:56.542Z,9.67
2019-02-04T06:34:59.950Z,11.53
2019-02-04T06:38:05.521Z,11.20
2019-02-04T06:41:08.944Z,10.83
2019-02-04T06:44:12.391Z,11.20
2019-02-04T06:47:15.806Z,12.17
2019-02-04T06:50:20.806Z,11.47
2019-02-04T06:53:24.228Z,12.87
2019-02-04T06:56:27.676Z,11.10
2019-02-04T06:59:31.089Z,11.20
2019-02-04T07:02:34.528Z,11.80
2019-02-04T07:05:43.854Z,11.33
2019-02-04T07:08:43.120Z,11.77
2019-02-04T07:11:46.538Z,11.63
2019-02-04T07:14:50.077Z,12.37
2019-02-04T07:17:53.560Z,11.60
2019-02-04T07:20:57.007Z,12.70
2019-02-04T07:24:00.428Z,11.93
2019-02-04T07:27:04.057Z,10.50
2019-02-04T07:30:13.229Z,9.83
2019-02-04T07:33:16.646Z,10.30
2019-02-04T07:36:20.100Z,10.43
2019-02-04T07:39:23.508Z,10.40
2019-02-04T07:42:26.962Z,9.80
2019-02-04T07:45:30.366Z,9.43
2019-02-04T07:48:33.808Z,9.23
2019-02-04T07:51:37.216Z,8.90
2019-02-04T07:54:40.660Z,9.07
2019-02-04T07:57:44.068Z,9.63
2019-02-04T08:00:47.508Z,9.40
2019-02-04T08:03:50.924Z,8.90
2019-02-04T08:06:54.362Z,8.80
2019-02-04T08:09:57.803Z,9.30
2019-02-04T08:13:02.089Z,8.93
2019-02-04T08:16:06.306Z,9.03
2019-02-04T08:19:09.712Z,8.97
2019-02-04T08:22:13.180Z,9.70
2019-02-04T08:25:17.434Z,10.03
2019-02-04T08:28:20.876Z,9.67
2019-02-04T08:31:24.316Z,9.53
2019-02-04T08:34:27.827Z,10.47
2019-02-04T08:37:31.248Z,10.63
2019-02-04T08:40:34.679Z,10.17
2019-02-04T08:43:38.096Z,12.23
2019-02-04T08:46:41.531Z,12.17
2019-02-04T08:49:44.952Z,10.97
2019-02-04T08:52:48.400Z,11.73
2019-02-04T08:55:51.808Z,11.67
2019-02-04T08:58:55.249Z,11.47
2019-02-04T09:01:58.940Z,12.03
2019-02-04T09:05:02.477Z,11.70
2019-02-04T09:08:05.956Z,11.17
2019-02-04T09:11:09.844Z,10.67
2019-02-04T09:14:13.289Z,11.20
2019-02-04T09:17:16.720Z,11.97
2019-02-04T09:20:20.773Z,11.37
2019-02-04T09:23:24.188Z,11.27
2019-02-04T09:26:27.625Z,11.20
2019-02-04T09:29:31.436Z,11.57
2019-02-04T09:32:34.844Z,12.03
2019-02-04T09:35:38.304Z,12.30
2019-02-04T09:38:41.715Z,11.80
2019-02-04T09:41:45.152Z,11.43
2019-02-04T09:44:48.580Z,11.47
2019-02-04T09:47:52.089Z,11.40
2019-02-04T09:50:55.576Z,11.50
2019-02-04T09:53:59.050Z,11.30
2019-02-04T09:57:02.509Z,12.53
2019-02-04T10:00:09.043Z,12.53
2019-02-04T10:03:12.489Z,12.23
2019-02-04T10:06:15.972Z,11.40
2019-02-04T10:09:19.385Z,11.73
2019-02-04T10:12:22.848Z,11.60
2019-02-04T10:15:29.366Z,12.30
2019-02-04T10:18:32.844Z,12.30
2019-02-04T10:21:36.382Z,11.50
2019-02-04T10:24:39.881Z,11.40
2019-02-04T10:27:43.778Z,11.73
2019-02-04T10:30:47.278Z,12.30
2019-02-04T10:33:51.086Z,12.70
2019-02-04T10:36:54.565Z,12.30
2019-02-04T10:39:58.001Z,11.80
2019-02-04T10:43:01.834Z,10.67
2019-02-04T10:46:05.447Z,12.33
2019-02-04T10:49:09.049Z,11.13
2019-02-04T10:52:12.778Z,12.60
2019-02-04T10:55:16.441Z,11.53
2019-02-04T10:58:20.070Z,11.27
2019-02-04T11:01:23.945Z,12.17
2019-02-04T11:04:27.382Z,12.53
2019-02-04T11:07:30.902Z,11.17
2019-02-04T11:10:35.973Z,11.50
2019-02-04T11:13:39.393Z,11.57
2019-02-04T11:16:42.859Z,11.00
2019-02-04T11:19:46.367Z,10.27
2019-02-04T11:22:50.045Z,10.20
2019-02-04T11:25:53.526Z,11.10
2019-02-04T11:28:57.067Z,9.67
2019-02-04T11:32:00.515Z,9.87
2019-02-04T11:35:05.162Z,8.83
2019-02-04T11:38:09.292Z,8.60
2019-02-04T11:41:12.779Z,9.23
2019-02-04T11:44:16.261Z,8.47
2019-02-04T11:47:19.808Z,9.13
2019-02-04T11:50:23.268Z,7.77
2019-02-04T11:53:32.914Z,8.47
2019-02-04T11:56:31.852Z,8.83
2019-02-04T11:59:35.301Z,8.23
2019-02-04T12:02:38.792Z,8.40
2019-02-04T12:05:42.228Z,8.00
2019-02-04T12:08:45.658Z,7.57
2019-02-04T12:11:49.092Z,7.67
2019-02-04T12:14:52.540Z,7.63
2019-02-04T12:17:55.948Z,7.47
2019-02-04T12:20:59.393Z,7.13
2019-02-04T12:24:02.892Z,7.43
2019-02-04T12:27:06.337Z,7.70
2019-02-04T12:30:21.116Z,7.30
2019-02-04T12:33:24.565Z,6.87
2019-02-04T12:36:27.988Z,8.03
2019-02-04T12:39:31.465Z,6.03
2019-02-04T12:42:34.876Z,5.87
2019-02-04T12:45:41.360Z,5.63
2019-02-04T12:48:44.776Z,5.83
2019-02-04T12:51:48.220Z,5.67
2019-02-04T12:54:51.633Z,5.67
2019-02-04T12:57:55.061Z,5.33
2019-02-04T13:00:58.499Z,5.77
2019-02-04T13:04:02.328Z,5.23
2019-02-04T13:07:05.787Z,6.30
2019-02-04T13:10:11.989Z,6.50
2019-02-04T13:13:18.448Z,6.33
2019-02-04T13:16:21.884Z,5.73
2019-02-04T13:19:25.300Z,6.10
2019-02-04T13:22:28.799Z,6.20
2019-02-04T13:25:32.309Z,5.40
2019-02-04T13:28:35.729Z,6.17
2019-02-04T13:31:39.447Z,5.77
2019-02-04T13:34:42.857Z,5.50
2019-02-04T13:37:46.286Z,6.17
2019-02-04T13:40:49.930Z,5.60
2019-02-04T13:43:53.331Z,5.80
2019-02-04T13:46:56.778Z,5.20
2019-02-04T13:50:00.264Z,5.83
2019-02-04T13:53:03.872Z,4.70
2019-02-04T13:56:07.314Z,5.23
2019-02-04T13:59:10.760Z,5.33
2019-02-04T14:02:14.177Z,4.77
2019-02-04T14:05:17.685Z,4.97
2019-02-04T14:08:21.088Z,5.10
2019-02-04T14:11:24.516Z,5.27
2019-02-04T14:14:27.920Z,4.80
2019-02-04T14:17:31.436Z,5.50
2019-02-04T14:20:36.550Z,4.60
2019-02-04T14:23:39.989Z,4.80
2019-02-04T14:26:43.396Z,4.67
2019-02-04T14:29:46.859Z,5.33
2019-02-04T14:32:50.252Z,5.53
2019-02-04T14:35:53.741Z,5.90
2019-02-04T14:38:57.180Z,4.87
2019-02-04T14:42:00.947Z,5.23
2019-02-04T14:45:25.870Z,6.07
2019-02-04T14:49:04.204Z,5.80
2019-02-04T14:52:22.031Z,5.67
2019-02-04T14:55:34.420Z,5.57
2019-02-04T14:58:45.652Z,5.60
2019-02-04T15:01:57.850Z,5.63
2019-02-04T15:05:04.336Z,5.27
2019-02-04T15:08:13.566Z,5.93
2019-02-04T15:11:22.972Z,5.40
2019-02-04T15:14:55.397Z,5.70
2019-02-04T15:18:04.480Z,5.17
2019-02-04T15:21:34.448Z,5.43
2019-02-04T15:24:46.976Z,5.83
2019-02-04T15:28:02.640Z,5.13
2019-02-04T15:31:14.885Z,5.77
2019-02-04T15:34:42.696Z,5.20
2019-02-04T15:38:09.836Z,5.90
2019-02-04T15:41:16.332Z,5.87
2019-02-04T15:44:43.504Z,5.43
2019-02-04T15:47:49.980Z,5.50
2019-02-04T15:50:56.479Z,6.67
2019-02-04T15:54:04.709Z,5.93
2019-02-04T15:57:08.335Z,5.87
2019-02-04T16:00:17.652Z,5.60
2019-02-04T16:03:28.093Z,6.17
2019-02-04T16:06:31.501Z,5.53
2019-02-04T16:09:34.932Z,5.80
2019-02-04T16:12:38.355Z,5.37
2019-02-04T16:15:42.370Z,5.40
2019-02-04T16:18:45.980Z,5.93
2019-02-04T16:21:51.413Z,5.37
2019-02-04T16:24:54.825Z,5.70
2019-02-04T16:27:58.271Z,5.40
2019-02-04T16:31:01.741Z,5.00
2019-02-04T16:34:05.233Z,5.37
2019-02-04T16:37:08.661Z,5.87
2019-02-04T16:40:15.516Z,6.03
2019-02-04T16:43:20.884Z,5.83
2019-02-04T16:46:24.296Z,6.03
2019-02-04T16:49:33.809Z,8.27
2019-02-04T16:52:48.249Z,9.20
2019-02-04T16:56:02.118Z,6.97
2019-02-04T16:59:05.693Z,7.23
2019-02-04T17:02:09.378Z,7.10
2019-02-04T17:05:26.980Z,7.43
2019-02-04T17:08:31.368Z,6.60
2019-02-04T17:11:34.777Z,6.20
2019-02-04T17:14:40.116Z,5.77
2019-02-04T17:17:44.584Z,5.70
2019-02-04T17:20:48.024Z,6.40
2019-02-04T17:23:51.458Z,6.80
2019-02-04T17:26:55.844Z,6.27
2019-02-04T17:29:59.330Z,6.67
2019-02-04T17:33:06.118Z,6.60
2019-02-04T17:36:09.525Z,5.60
2019-02-04T17:39:13.123Z,6.20
2019-02-04T17:42:16.602Z,5.53
2019-02-04T17:45:20.033Z,5.33
2019-02-04T17:48:23.460Z,6.00
2019-02-04T17:51:26.884Z,5.90
2019-02-04T17:54:36.101Z,6.13
2019-02-04T17:57:39.528Z,5.13
2019-02-04T18:00:45.048Z,6.33
2019-02-04T18:04:06.984Z,6.33
2019-02-04T18:07:10.456Z,6.00
2019-02-04T18:10:16.824Z,6.07
2019-02-04T18:13:28.328Z,6.13
2019-02-04T18:16:31.767Z,7.63
2019-02-04T18:19:35.200Z,7.57
2019-02-04T18:22:38.609Z,6.70
2019-02-04T18:25:59.209Z,6.53
2019-02-04T18:29:12.629Z,6.87
2019-02-04T18:32:18.095Z,6.27
2019-02-04T18:35:22.946Z,7.13
2019-02-04T18:38:29.508Z,6.00
2019-02-04T18:41:52.022Z,6.17
2019-02-04T18:44:59.556Z,6.23
2019-02-04T18:48:03.056Z,6.03
2019-02-04T18:51:06.869Z,5.70
2019-02-04T18:54:11.285Z,6.63
2019-02-04T18:57:16.272Z,6.40
2019-02-04T19:00:22.171Z,6.00
2019-02-04T19:03:26.596Z,6.10
2019-02-04T19:06:30.008Z,5.97
2019-02-04T19:09:40.444Z,5.70
2019-02-04T19:12:53.084Z,6.80
2019-02-04T19:16:06.625Z,6.47
2019-02-04T19:19:10.030Z,6.30
2019-02-04T19:22:13.463Z,6.27
2019-02-04T19:25:18.832Z,6.80
2019-02-04T19:28:22.316Z,6.43
2019-02-04T19:31:31.787Z,8.57
2019-02-04T19:34:38.262Z,6.23
2019-02-04T19:37:42.705Z,6.40
2019-02-04T19:40:48.986Z,6.40
2019-02-04T19:43:53.315Z,6.13
2019-02-04T19:46:56.910Z,5.93
2019-02-04T19:50:00.354Z,6.07
2019-02-04T19:53:04.644Z,5.97
2019-02-04T19:56:14.836Z,5.00
2019-02-04T19:59:21.063Z,5.90
2019-02-04T20:02:23.391Z,6.23
2019-02-04T20:05:28.562Z,5.33
2019-02-04T20:08:41.332Z,5.70
2019-02-04T20:11:44.760Z,5.60
2019-02-04T20:14:48.168Z,6.07
2019-02-04T20:17:59.412Z,5.37
2019-02-04T20:21:02.824Z,5.67
2019-02-04T20:24:06.760Z,5.93
2019-02-04T20:27:10.172Z,5.40
2019-02-04T20:30:46.669Z,5.20
2019-02-04T20:33:52.792Z,5.80
2019-02-04T20:37:08.304Z,5.43
2019-02-04T20:40:23.096Z,5.00
2019-02-04T20:43:26.546Z,5.40
2019-02-04T20:46:31.977Z,5.10
2019-02-04T20:49:36.404Z,5.70
2019-02-04T20:52:48.888Z,5.20
2019-02-04T20:55:53.229Z,4.97
2019-02-04T20:58:56.652Z,4.87
2019-02-04T21:02:00.462Z,4.73
2019-02-04T21:05:05.313Z,4.80
2019-02-04T21:08:15.032Z,4.60
2019-02-04T21:11:28.428Z,4.70
2019-02-04T21:14:49.332Z,4.83
2019-02-04T21:17:52.924Z,4.40
2019-02-04T21:20:59.418Z,4.57
2019-02-04T21:24:02.848Z,4.40
2019-02-04T21:27:09.285Z,4.87
2019-02-04T21:30:18.652Z,5.40
2019-02-04T21:33:23.039Z,4.67
2019-02-04T21:36:26.836Z,4.10
2019-02-04T21:39:30.261Z,4.20
2019-02-04T21:42:33.685Z,4.10
2019-02-04T21:45:38.253Z,4.33
2019-02-04T21:48:43.654Z,4.93
2019-02-04T21:51:48.069Z,4.43
2019-02-04T21:54:51.855Z,5.20
2019-02-04T21:57:55.280Z,4.67
2019-02-04T22:00:59.684Z,4.50
2019-02-04T22:04:04.745Z,4.30
2019-02-04T22:07:09.729Z,4.70
2019-02-04T22:10:16.212Z,4.83
2019-02-04T22:13:19.644Z,4.47
2019-02-04T22:16:23.556Z,4.00
2019-02-04T22:19:27.355Z,4.90
2019-02-04T22:22:30.768Z,4.50
2019-02-04T22:25:34.195Z,4.63
2019-02-04T22:28:43.590Z,4.57
2019-02-04T22:31:47.084Z,4.50
2019-02-04T22:34:50.788Z,4.60
2019-02-04T22:37:56.141Z,5.13
2019-02-04T22:40:59.556Z,4.80
2019-02-04T22:44:05.149Z,5.00
2019-02-04T22:47:17.588Z,5.27
2019-02-04T22:50:26.204Z,5.13
2019-02-04T22:53:29.622Z,5.10
2019-02-04T22:56:34.973Z,5.40
2019-02-04T22:59:39.375Z,5.77
2019-02-04T23:02:43.295Z,5.80
2019-02-04T23:05:46.696Z,5.87
2019-02-04T23:08:59.008Z,6.50
2019-02-04T23:12:08.228Z,5.80
2019-02-04T23:15:11.740Z,6.37
2019-02-04T23:18:15.388Z,5.80
2019-02-04T23:21:18.840Z,6.33
2019-02-04T23:24:22.244Z,5.73
2019-02-04T23:27:33.539Z,5.80
2019-02-04T23:30:38.932Z,6.00
2019-02-04T23:33:48.836Z,6.23
2019-02-04T23:36:58.724Z,5.73
2019-02-04T23:40:02.152Z,6.13
2019-02-04T23:43:05.697Z,5.90
2019-02-04T23:46:11.131Z,5.90
2019-02-04T23:49:14.542Z,5.20
2019-02-04T23:52:17.983Z,5.40
2019-02-04T23:55:21.402Z,5.83
2019-02-04T23:58:24.836Z,5.80
